createdAt,value
2018-09-23T00:00:58.725Z,14.40
2018-09-23T00:03:27.954Z,14.40
2018-09-23T00:05:57.216Z,14.40
2018-09-23T00:08:26.430Z,14.40
2018-09-23T00:10:55.652Z,14.50
2018-09-23T00:13:24.876Z,14.50
2018-09-23T00:15:54.205Z,14.50
2018-09-23T00:18:23.379Z,14.40
2018-09-23T00:20:52.514Z,14.40
2018-09-23T00:23:21.780Z,14.50
2018-09-23T00:25:50.927Z,14.40
2018-09-23T00:28:20.775Z,14.60
2018-09-23T00:30:50.009Z,14.50
2018-09-23T00:33:19.203Z,14.60
2018-09-23T00:35:48.407Z,14.60
2018-09-23T00:38:18.192Z,14.60
2018-09-23T00:40:47.337Z,14.50
2018-09-23T00:43:16.507Z,14.40
2018-09-23T00:45:45.709Z,14.30
2018-09-23T00:48:16.328Z,14.30
2018-09-23T00:50:45.411Z,14.40
2018-09-23T00:53:15.250Z,14.40
2018-09-23T00:55:44.525Z,14.50
2018-09-23T00:58:13.777Z,14.30
2018-09-23T01:00:42.955Z,14.40
2018-09-23T01:03:12.843Z,14.40
2018-09-23T01:05:42.695Z,14.50
2018-09-23T01:08:11.878Z,14.60
2018-09-23T01:10:41.030Z,14.60
2018-09-23T01:13:10.108Z,14.70
2018-09-23T01:15:39.266Z,14.60
2018-09-23T01:18:09.100Z,14.60
2018-09-23T01:20:38.694Z,14.60
2018-09-23T01:23:07.859Z,14.60
2018-09-23T01:25:37.065Z,14.60
2018-09-23T01:28:06.376Z,14.70
2018-09-23T01:30:35.552Z,14.50
2018-09-23T01:33:04.744Z,14.60
2018-09-23T01:35:34.635Z,14.50
2018-09-23T01:38:03.762Z,14.50
2018-09-23T01:40:32.852Z,14.50
2018-09-23T01:43:02.640Z,14.50
2018-09-23T01:45:31.921Z,14.60
2018-09-23T01:48:01.163Z,14.50
2018-09-23T01:50:30.528Z,14.60
2018-09-23T01:52:59.649Z,14.50
2018-09-23T01:55:28.796Z,14.60
2018-09-23T01:57:57.940Z,14.60
2018-09-23T02:00:27.817Z,14.70
2018-09-23T02:02:57.044Z,14.60
2018-09-23T02:05:26.295Z,14.60
2018-09-23T02:07:55.448Z,14.40
2018-09-23T02:10:24.625Z,14.50
2018-09-23T02:12:54.448Z,14.60
2018-09-23T02:15:23.533Z,14.70
2018-09-23T02:17:52.685Z,14.70
2018-09-23T02:20:21.905Z,14.70
2018-09-23T02:22:51.126Z,14.70
2018-09-23T02:25:20.324Z,14.70
2018-09-23T02:27:50.210Z,14.80
2018-09-23T02:30:19.379Z,14.80
2018-09-23T02:32:48.602Z,14.80
2018-09-23T02:35:17.848Z,14.80
2018-09-23T02:37:46.927Z,14.90
2018-09-23T02:40:16.045Z,14.90
2018-09-23T02:42:45.141Z,14.90
2018-09-23T02:45:14.350Z,14.90
2018-09-23T02:47:43.652Z,14.80
2018-09-23T02:50:12.823Z,14.90
2018-09-23T02:52:42.407Z,14.90
2018-09-23T02:55:11.586Z,14.90
2018-09-23T02:57:40.811Z,15.00
2018-09-23T03:00:10.037Z,15.10
2018-09-23T03:02:39.167Z,15.10
2018-09-23T03:05:08.426Z,15.10
2018-09-23T03:07:38.242Z,15.20
2018-09-23T03:10:07.928Z,15.30
2018-09-23T03:12:37.085Z,15.30
2018-09-23T03:15:06.334Z,15.20
2018-09-23T03:17:35.457Z,15.20
2018-09-23T03:20:04.641Z,15.40
2018-09-23T03:22:33.703Z,15.40
2018-09-23T03:25:02.804Z,15.40
2018-09-23T03:27:31.880Z,15.40
2018-09-23T03:30:01.126Z,15.60
2018-09-23T03:32:30.236Z,15.60
2018-09-23T03:34:59.981Z,15.80
2018-09-23T03:37:29.109Z,16.00
2018-09-23T03:39:58.283Z,16.10
2018-09-23T03:42:27.503Z,16.20
2018-09-23T03:44:56.608Z,16.30
2018-09-23T03:47:25.837Z,16.30
2018-09-23T03:49:54.965Z,16.30
2018-09-23T03:52:24.109Z,16.40
2018-09-23T03:54:53.859Z,16.40
2018-09-23T03:57:23.084Z,16.40
2018-09-23T03:59:52.293Z,16.40
2018-09-23T04:02:22.020Z,16.50
2018-09-23T04:04:51.095Z,16.50
2018-09-23T04:07:20.305Z,16.50
2018-09-23T04:09:49.506Z,16.60
2018-09-23T04:12:19.269Z,16.70
2018-09-23T04:14:48.361Z,16.80
2018-09-23T04:17:17.447Z,16.90
2018-09-23T04:19:46.570Z,16.90
2018-09-23T04:22:15.660Z,17.00
2018-09-23T04:24:44.810Z,17.10
2018-09-23T04:27:14.055Z,17.20
2018-09-23T04:29:43.293Z,17.20
2018-09-23T04:32:12.632Z,17.30
2018-09-23T04:34:41.810Z,17.30
2018-09-23T04:37:10.957Z,17.30
2018-09-23T04:39:40.189Z,17.30
2018-09-23T04:42:09.371Z,17.30
2018-09-23T04:44:39.119Z,17.30
2018-09-23T04:47:08.889Z,17.40
2018-09-23T04:49:38.042Z,17.70
2018-09-23T04:52:07.221Z,17.80
2018-09-23T04:54:36.395Z,17.80
2018-09-23T04:57:06.181Z,17.90
2018-09-23T04:59:35.249Z,18.20
2018-09-23T05:02:04.757Z,18.30
2018-09-23T05:04:34.048Z,18.30
2018-09-23T05:07:03.251Z,18.50
2018-09-23T05:09:32.929Z,18.50
2018-09-23T05:12:02.065Z,18.50
2018-09-23T05:14:31.247Z,18.60
2018-09-23T05:17:00.595Z,18.70
2018-09-23T05:19:29.879Z,18.80
2018-09-23T05:21:59.139Z,18.80
2018-09-23T05:24:28.429Z,18.80
2018-09-23T05:26:57.669Z,18.80
2018-09-23T05:29:26.811Z,18.80
2018-09-23T05:31:56.671Z,18.80
2018-09-23T05:34:25.949Z,18.90
2018-09-23T05:36:55.757Z,18.90
2018-09-23T05:39:24.973Z,18.90
2018-09-23T05:41:54.210Z,18.80
2018-09-23T05:44:23.353Z,18.80
2018-09-23T05:46:52.473Z,18.80
2018-09-23T05:49:21.563Z,18.80
2018-09-23T05:51:50.740Z,19.00
2018-09-23T05:54:19.867Z,19.00
2018-09-23T05:56:48.961Z,19.00
2018-09-23T05:59:18.259Z,19.00
2018-09-23T06:01:47.397Z,19.00
2018-09-23T06:04:16.525Z,19.00
2018-09-23T06:06:45.692Z,19.10
2018-09-23T06:09:15.068Z,19.10
2018-09-23T06:11:44.255Z,19.10
2018-09-23T06:14:13.429Z,19.10
2018-09-23T06:16:43.310Z,19.10
2018-09-23T06:19:12.522Z,19.00
2018-09-23T06:21:41.719Z,19.00
2018-09-23T06:24:10.872Z,19.10
2018-09-23T06:26:40.090Z,19.10
2018-09-23T06:29:09.227Z,19.10
2018-09-23T06:31:38.315Z,19.10
2018-09-23T06:34:07.495Z,19.10
2018-09-23T06:36:36.551Z,19.20
2018-09-23T06:39:07.353Z,19.10
2018-09-23T06:41:36.493Z,19.10
2018-09-23T06:44:05.735Z,19.10
2018-09-23T06:46:35.258Z,19.10
2018-09-23T06:49:04.474Z,19.00
2018-09-23T06:51:33.783Z,19.00
2018-09-23T06:54:03.599Z,19.00
2018-09-23T06:56:32.810Z,19.00
2018-09-23T06:59:01.995Z,19.00
2018-09-23T07:01:32.255Z,19.00
2018-09-23T07:04:01.394Z,19.10
2018-09-23T07:06:30.601Z,19.10
2018-09-23T07:09:00.717Z,19.00
2018-09-23T07:11:29.903Z,19.10
2018-09-23T07:13:58.987Z,19.10
2018-09-23T07:16:28.083Z,19.10
2018-09-23T07:18:57.318Z,19.10
2018-09-23T07:21:26.489Z,19.20
2018-09-23T07:23:55.919Z,19.20
2018-09-23T07:26:25.201Z,19.30
2018-09-23T07:28:54.557Z,19.30
2018-09-23T07:31:23.682Z,19.30
2018-09-23T07:33:52.767Z,19.40
2018-09-23T07:36:21.833Z,19.50
2018-09-23T07:38:51.054Z,19.50
2018-09-23T07:41:20.146Z,19.50
2018-09-23T07:43:49.205Z,19.60
2018-09-23T07:46:18.276Z,19.60
2018-09-23T07:48:47.332Z,19.70
2018-09-23T07:51:17.210Z,19.70
2018-09-23T07:53:46.342Z,19.80
2018-09-23T07:58:44.651Z,19.80
2018-09-23T08:01:13.800Z,19.80
2018-09-23T08:03:43.472Z,19.90
2018-09-23T08:06:12.634Z,20.10
2018-09-23T08:08:41.783Z,20.20
2018-09-23T08:11:10.977Z,20.20
2018-09-23T08:13:40.717Z,20.20
2018-09-23T08:16:09.704Z,20.30
2018-09-23T08:18:38.993Z,20.20
2018-09-23T08:21:08.314Z,20.30
2018-09-23T08:23:37.685Z,20.30
2018-09-23T08:26:07.143Z,20.30
2018-09-23T08:28:36.332Z,20.40
2018-09-23T08:31:05.481Z,20.40
2018-09-23T08:33:34.691Z,20.50
2018-09-23T08:36:04.708Z,20.70
2018-09-23T08:38:33.936Z,20.80
2018-09-23T08:41:03.591Z,20.80
2018-09-23T08:43:32.836Z,20.80
2018-09-23T08:46:02.029Z,21.10
2018-09-23T08:48:31.247Z,21.30
2018-09-23T08:51:01.157Z,21.60
2018-09-23T08:53:30.350Z,21.80
2018-09-23T08:55:59.559Z,21.80
2018-09-23T08:58:28.796Z,21.90
2018-09-23T09:00:58.008Z,22.10
2018-09-23T09:03:27.239Z,22.10
2018-09-23T09:05:56.583Z,22.10
2018-09-23T09:08:25.762Z,22.40
2018-09-23T09:10:54.864Z,22.50
2018-09-23T09:13:24.102Z,22.50
2018-09-23T09:15:53.416Z,22.50
2018-09-23T09:18:22.629Z,22.50
2018-09-23T09:20:51.742Z,22.60
2018-09-23T09:23:21.013Z,22.70
2018-09-23T09:25:50.200Z,23.00
2018-09-23T09:28:19.396Z,23.10
2018-09-23T09:30:48.649Z,23.30
2018-09-23T09:33:17.855Z,23.50
2018-09-23T09:35:47.727Z,23.50
2018-09-23T09:38:17.051Z,23.60
2018-09-23T09:40:46.582Z,23.60
2018-09-23T09:45:44.684Z,23.60
2018-09-23T09:48:13.896Z,23.60
2018-09-23T09:50:43.483Z,23.70
2018-09-23T09:53:12.605Z,23.70
2018-09-23T09:55:42.023Z,23.70
2018-09-23T09:58:11.256Z,23.80
2018-09-23T10:00:40.688Z,23.90
2018-09-23T10:03:09.928Z,24.10
2018-09-23T10:05:39.116Z,24.20
2018-09-23T10:08:09.424Z,24.20
2018-09-23T10:10:38.872Z,24.40
2018-09-23T10:13:08.274Z,24.60
2018-09-23T10:15:37.560Z,24.50
2018-09-23T10:18:06.853Z,24.40
2018-09-23T10:20:36.058Z,24.10
2018-09-23T10:23:05.426Z,24.20
2018-09-23T10:28:03.732Z,24.30
2018-09-23T10:30:32.978Z,24.60
2018-09-23T10:35:31.212Z,24.70
2018-09-23T10:38:00.819Z,25.10
2018-09-23T10:40:30.070Z,25.00
2018-09-23T10:45:28.186Z,25.10
2018-09-23T10:50:26.312Z,25.40
2018-09-23T10:52:55.608Z,25.60
2018-09-23T10:55:24.959Z,26.20
2018-09-23T10:57:54.357Z,25.90
2018-09-23T11:00:23.684Z,25.90
2018-09-23T11:02:53.751Z,25.90
2018-09-23T11:05:22.932Z,25.80
2018-09-23T11:10:22.755Z,25.80
2018-09-23T11:12:51.980Z,25.80
2018-09-23T11:20:19.142Z,26.00
2018-09-23T11:22:49.068Z,26.40
2018-09-23T11:25:18.532Z,26.70
2018-09-23T11:27:48.354Z,27.00
2018-09-23T11:30:17.685Z,27.10
2018-09-23T11:32:47.010Z,26.90
2018-09-23T11:35:16.458Z,27.10
2018-09-23T11:37:45.738Z,26.80
2018-09-23T11:40:15.073Z,27.10
2018-09-23T11:42:44.338Z,27.30
2018-09-23T11:45:13.674Z,26.90
2018-09-23T11:47:42.910Z,27.00
2018-09-23T11:50:12.211Z,27.00
2018-09-23T11:52:41.665Z,27.00
2018-09-23T11:55:11.498Z,27.20
2018-09-23T11:57:41.000Z,27.20
2018-09-23T12:00:10.356Z,27.60
2018-09-23T12:02:39.646Z,27.50
2018-09-23T12:05:09.529Z,27.60
2018-09-23T12:07:38.881Z,27.30
2018-09-23T12:10:08.237Z,27.50
2018-09-23T12:12:37.858Z,27.70
2018-09-23T12:15:07.628Z,27.70
2018-09-23T12:17:37.122Z,27.90
2018-09-23T12:20:06.372Z,27.10
2018-09-23T12:22:35.669Z,27.60
2018-09-23T12:25:05.006Z,28.20
2018-09-23T12:27:34.592Z,28.70
2018-09-23T12:30:04.136Z,28.80
2018-09-23T12:32:33.494Z,28.50
2018-09-23T12:35:02.762Z,28.20
2018-09-23T12:37:32.038Z,28.30
2018-09-23T12:40:02.396Z,28.20
2018-09-23T12:42:31.950Z,28.40
2018-09-23T12:45:01.468Z,28.20
2018-09-23T12:47:30.776Z,28.50
2018-09-23T12:50:00.171Z,28.10
2018-09-23T12:52:29.559Z,28.40
2018-09-23T12:54:58.788Z,28.00
2018-09-23T12:57:28.158Z,28.10
2018-09-23T12:59:58.684Z,28.60
2018-09-23T13:02:28.022Z,28.50
2018-09-23T13:04:57.432Z,28.70
2018-09-23T13:09:55.568Z,28.70
2018-09-23T13:12:24.905Z,29.00
2018-09-23T13:14:54.108Z,28.20
2018-09-23T13:17:23.595Z,29.00
2018-09-23T13:19:52.744Z,28.80
2018-09-23T13:22:22.120Z,29.00
2018-09-23T13:24:52.057Z,29.10
2018-09-23T13:27:21.474Z,29.20
2018-09-23T13:29:50.759Z,29.50
2018-09-23T13:32:20.694Z,29.10
2018-09-23T13:34:50.724Z,28.80
2018-09-23T13:37:19.983Z,29.00
2018-09-23T13:39:49.864Z,28.10
2018-09-23T13:42:19.206Z,28.10
2018-09-23T13:44:48.624Z,28.20
2018-09-23T13:47:17.882Z,28.60
2018-09-23T13:49:47.216Z,28.70
2018-09-23T13:52:16.416Z,29.00
2018-09-23T13:54:45.784Z,29.00
2018-09-23T13:57:15.077Z,28.80
2018-09-23T13:59:44.449Z,28.70
2018-09-23T14:02:13.993Z,28.70
2018-09-23T14:04:43.380Z,28.20
2018-09-23T14:07:13.491Z,27.90
2018-09-23T14:09:42.844Z,27.30
2018-09-23T14:12:12.211Z,27.00
2018-09-23T14:14:41.508Z,26.90
2018-09-23T14:17:11.407Z,27.00
2018-09-23T14:19:40.980Z,26.90
2018-09-23T14:22:10.365Z,26.80
2018-09-23T14:24:39.628Z,26.60
2018-09-23T14:27:09.181Z,26.60
2018-09-23T14:29:38.469Z,26.80
2018-09-23T14:32:07.785Z,26.80
2018-09-23T14:34:37.219Z,26.80
2018-09-23T14:37:06.646Z,26.60
2018-09-23T14:39:35.883Z,26.70
2018-09-23T14:42:05.212Z,26.70
2018-09-23T14:44:34.515Z,26.80
2018-09-23T14:47:03.876Z,27.40
2018-09-23T14:49:33.126Z,27.60
2018-09-23T14:52:02.430Z,28.10
2018-09-23T14:54:31.821Z,28.70
2018-09-23T14:57:01.207Z,28.60
2018-09-23T14:59:30.676Z,27.40
2018-09-23T15:02:00.066Z,27.00
2018-09-23T15:04:29.306Z,26.60
2018-09-23T15:06:58.524Z,26.50
2018-09-23T15:09:27.605Z,26.50
2018-09-23T15:11:56.731Z,26.50
2018-09-23T15:14:25.869Z,26.50
2018-09-23T15:16:54.963Z,26.50
2018-09-23T15:19:24.128Z,26.50
2018-09-23T15:21:53.349Z,26.50
2018-09-23T15:24:22.354Z,26.50
2018-09-23T15:26:51.455Z,26.30
2018-09-23T15:29:20.560Z,26.10
2018-09-23T15:31:50.120Z,25.90
2018-09-23T15:34:19.282Z,25.70
2018-09-23T15:36:48.359Z,25.70
2018-09-23T15:39:18.025Z,25.50
2018-09-23T15:41:47.096Z,25.20
2018-09-23T15:44:16.199Z,25.20
2018-09-23T15:46:45.328Z,25.30
2018-09-23T15:49:14.424Z,25.10
2018-09-23T15:51:43.604Z,25.20
2018-09-23T15:54:12.696Z,25.20
2018-09-23T15:56:41.780Z,25.20
2018-09-23T15:59:10.872Z,25.20
2018-09-23T16:01:40.333Z,25.20
2018-09-23T16:04:09.408Z,25.20
2018-09-23T16:06:38.487Z,25.20
2018-09-23T16:09:09.051Z,25.20
2018-09-23T16:11:38.471Z,25.20
2018-09-23T16:14:07.682Z,25.20
2018-09-23T16:16:36.874Z,25.20
2018-09-23T16:19:06.065Z,25.20
2018-09-23T16:21:35.161Z,25.30
2018-09-23T16:24:04.341Z,25.40
2018-09-23T16:26:33.631Z,25.40
2018-09-23T16:29:02.710Z,25.50
2018-09-23T16:31:31.772Z,25.70
2018-09-23T16:34:00.874Z,25.60
2018-09-23T16:36:29.950Z,26.00
2018-09-23T16:38:59.038Z,26.60
2018-09-23T16:41:28.150Z,26.30
2018-09-23T16:43:57.781Z,25.70
2018-09-23T16:46:27.903Z,25.40
2018-09-23T16:48:56.997Z,25.30
2018-09-23T16:51:26.057Z,25.30
2018-09-23T16:53:55.150Z,25.20
2018-09-23T16:56:24.244Z,25.20
2018-09-23T16:58:53.320Z,25.20
2018-09-23T17:01:22.430Z,25.10
2018-09-23T17:03:51.624Z,25.10
2018-09-23T17:06:20.698Z,25.10
2018-09-23T17:08:49.749Z,25.10
2018-09-23T17:11:18.861Z,25.00
2018-09-23T17:13:47.965Z,25.00
2018-09-23T17:16:17.070Z,24.90
2018-09-23T17:18:46.354Z,24.90
2018-09-23T17:21:15.468Z,24.90
2018-09-23T17:23:44.554Z,24.90
2018-09-23T17:26:13.674Z,24.90
2018-09-23T17:28:42.789Z,24.90
2018-09-23T17:31:11.830Z,24.90
2018-09-23T17:33:40.934Z,24.90
2018-09-23T17:36:10.008Z,24.80
2018-09-23T17:38:39.078Z,24.90
2018-09-23T17:41:08.303Z,24.80
2018-09-23T17:43:37.383Z,24.80
2018-09-23T17:46:06.457Z,24.80
2018-09-23T17:48:35.555Z,24.90
2018-09-23T17:51:04.684Z,24.90
2018-09-23T17:53:33.721Z,24.80
2018-09-23T17:56:02.900Z,24.80
2018-09-23T17:58:31.967Z,24.70
2018-09-23T18:01:01.039Z,24.60
2018-09-23T18:03:30.135Z,24.60
2018-09-23T18:05:59.336Z,24.70
2018-09-23T18:08:28.375Z,24.70
2018-09-23T18:10:57.443Z,24.70
2018-09-23T18:13:26.466Z,24.60
2018-09-23T18:15:55.548Z,24.60
2018-09-23T18:18:24.598Z,24.50
2018-09-23T18:20:53.913Z,24.50
2018-09-23T18:23:22.996Z,24.40
2018-09-23T18:25:52.063Z,24.40
2018-09-23T18:28:21.117Z,24.40
2018-09-23T18:30:50.233Z,24.40
2018-09-23T18:33:19.300Z,24.40
2018-09-23T18:35:48.395Z,24.40
2018-09-23T18:38:17.496Z,24.40
2018-09-23T18:40:46.598Z,24.30
2018-09-23T18:43:15.720Z,24.30
2018-09-23T18:45:44.847Z,24.20
2018-09-23T18:48:13.940Z,24.10
2018-09-23T18:50:43.036Z,24.10
2018-09-23T18:53:17.521Z,24.10
2018-09-23T18:55:47.690Z,24.00
2018-09-23T18:58:16.784Z,23.60
2018-09-23T19:00:45.877Z,23.40
2018-09-23T19:03:14.994Z,22.90
2018-09-23T19:05:44.019Z,22.60
2018-09-23T19:08:13.265Z,21.80
2018-09-23T19:10:42.354Z,20.90
2018-09-23T19:13:16.804Z,19.30
2018-09-23T19:15:50.102Z,18.00
2018-09-23T19:18:19.200Z,17.40
2018-09-23T19:20:48.374Z,17.00
2018-09-23T19:23:17.503Z,16.70
2018-09-23T19:25:46.554Z,16.60
2018-09-23T19:28:15.638Z,16.60
2018-09-23T19:30:44.781Z,16.60
2018-09-23T19:33:13.871Z,16.80
2018-09-23T19:35:42.972Z,16.90
2018-09-23T19:38:12.106Z,16.90
2018-09-23T19:40:41.248Z,16.90
2018-09-23T19:43:10.356Z,16.70
2018-09-23T19:45:39.404Z,16.50
2018-09-23T19:48:08.538Z,16.30
2018-09-23T19:50:37.610Z,16.10
2018-09-23T19:53:06.455Z,15.90
2018-09-23T19:55:35.543Z,15.50
2018-09-23T19:58:04.603Z,15.20
2018-09-23T20:00:33.669Z,14.90
2018-09-23T20:03:02.785Z,14.80
2018-09-23T20:05:31.854Z,14.70
2018-09-23T20:08:00.977Z,14.60
2018-09-23T20:10:30.964Z,14.50
2018-09-23T20:13:00.222Z,14.60
2018-09-23T20:15:29.411Z,14.60
2018-09-23T20:17:58.481Z,14.60
2018-09-23T20:20:27.557Z,14.70
2018-09-23T20:22:56.659Z,14.80
2018-09-23T20:25:25.728Z,14.80
2018-09-23T20:27:54.797Z,14.80
2018-09-23T20:30:23.871Z,14.80
2018-09-23T20:32:53.486Z,14.70
2018-09-23T20:35:22.571Z,14.80
2018-09-23T20:37:51.718Z,14.80
2018-09-23T20:40:20.816Z,14.60
2018-09-23T20:42:49.934Z,14.80
2018-09-23T20:45:19.008Z,14.90
2018-09-23T20:47:58.448Z,15.00
2018-09-23T20:50:27.549Z,14.90
2018-09-23T20:52:56.657Z,14.60
2018-09-23T20:55:25.708Z,14.70
2018-09-23T20:57:54.839Z,14.50
2018-09-23T21:00:23.899Z,14.50
2018-09-23T21:02:52.964Z,14.40
2018-09-23T21:05:22.111Z,14.60
2018-09-23T21:07:51.203Z,14.70
2018-09-23T21:10:20.311Z,14.60
2018-09-23T21:12:49.878Z,14.60
2018-09-23T21:15:18.994Z,14.70
2018-09-23T21:17:48.070Z,14.60
2018-09-23T21:20:17.128Z,14.50
2018-09-23T21:22:46.420Z,14.40
2018-09-23T21:25:15.489Z,14.10
2018-09-23T21:27:44.659Z,14.20
2018-09-23T21:30:13.721Z,14.30
2018-09-23T21:32:42.841Z,14.30
2018-09-23T21:35:11.922Z,14.30
2018-09-23T21:37:41.011Z,14.30
2018-09-23T21:40:10.118Z,14.30
2018-09-23T21:42:39.269Z,14.20
2018-09-23T21:45:08.713Z,14.10
2018-09-23T21:47:37.760Z,14.20
2018-09-23T21:50:06.911Z,14.20
2018-09-23T21:52:35.969Z,14.20
2018-09-23T21:55:05.113Z,14.10
2018-09-23T21:57:34.189Z,14.00
2018-09-23T22:00:03.591Z,14.00
2018-09-23T22:02:32.675Z,14.10
2018-09-23T22:05:01.731Z,14.20
2018-09-23T22:07:30.797Z,14.20
2018-09-23T22:09:59.919Z,14.10
2018-09-23T22:12:28.997Z,14.00
2018-09-23T22:14:58.205Z,14.00
2018-09-23T22:17:27.281Z,14.10
2018-09-23T22:19:56.350Z,14.00
2018-09-23T22:22:25.449Z,14.10
2018-09-23T22:24:54.602Z,14.10
2018-09-23T22:27:23.663Z,14.10
2018-09-23T22:29:52.758Z,14.20
2018-09-23T22:32:21.837Z,14.30
2018-09-23T22:34:50.896Z,14.30
2018-09-23T22:37:19.975Z,14.40
2018-09-23T22:39:49.071Z,14.30
2018-09-23T22:42:18.127Z,14.20
2018-09-23T22:44:47.213Z,14.20
2018-09-23T22:47:16.309Z,14.10
2018-09-23T22:49:45.595Z,14.10
2018-09-23T22:52:14.671Z,14.20
2018-09-23T22:54:43.744Z,14.20
2018-09-23T22:57:12.977Z,14.30
2018-09-23T22:59:42.053Z,14.30
2018-09-23T23:02:11.133Z,14.20
2018-09-23T23:04:40.221Z,14.10
2018-09-23T23:07:09.293Z,13.90
2018-09-23T23:09:38.370Z,14.00
2018-09-23T23:12:07.485Z,13.90
2018-09-23T23:14:36.561Z,14.00
2018-09-23T23:17:05.919Z,14.10
2018-09-23T23:19:35.031Z,14.10
2018-09-23T23:22:04.159Z,14.10
2018-09-23T23:24:33.293Z,14.10
2018-09-23T23:27:02.565Z,14.10
2018-09-23T23:29:31.625Z,14.20
2018-09-23T23:32:00.997Z,14.00
2018-09-23T23:34:30.095Z,13.90
2018-09-23T23:36:59.150Z,13.90
2018-09-23T23:39:28.213Z,13.80
2018-09-23T23:41:57.321Z,13.70
2018-09-23T23:44:26.377Z,13.70
2018-09-23T23:46:55.465Z,13.70
2018-09-23T23:49:24.683Z,13.80
2018-09-23T23:51:53.755Z,13.80
2018-09-23T23:54:23.397Z,13.80
2018-09-23T23:56:52.493Z,13.80
2018-09-23T23:59:21.561Z,13.60
